sensor_id;sensor_type;location;lat;lon;timestamp;pressure;altitude;pressure_sealevel;temperature;humidity
74466;BME280;62916;50.044;15.938;2022-11-15T00:02:22;99276.80;;;21.99;47.68
74466;BME280;62916;50.044;15.938;2022-11-15T00:04:53;99275.58;;;21.99;47.56
74466;BME280;62916;50.044;15.938;2022-11-15T00:07:23;99271.26;;;21.99;47.60
74466;BME280;62916;50.044;15.938;2022-11-15T00:10:15;99266.67;;;21.98;47.41
74466;BME280;62916;50.044;15.938;2022-11-15T00:12:46;99265.44;;;21.98;47.60
74466;BME280;62916;50.044;15.938;2022-11-15T00:15:17;99262.11;;;21.93;47.65
74466;BME280;62916;50.044;15.938;2022-11-15T00:17:51;99265.91;;;21.92;47.65
74466;BME280;62916;50.044;15.938;2022-11-15T00:20:21;99261.66;;;21.89;47.71
74466;BME280;62916;50.044;15.938;2022-11-15T00:22:52;99264.59;;;21.88;47.67
74466;BME280;62916;50.044;15.938;2022-11-15T00:25:23;99264.95;;;21.89;47.79
74466;BME280;62916;50.044;15.938;2022-11-15T00:27:57;99268.59;;;21.86;47.73
74466;BME280;62916;50.044;15.938;2022-11-15T00:30:29;99266.52;;;21.83;47.84
74466;BME280;62916;50.044;15.938;2022-11-15T00:33:03;99266.95;;;21.79;47.97
74466;BME280;62916;50.044;15.938;2022-11-15T00:35:35;99261.73;;;21.76;48.03
74466;BME280;62916;50.044;15.938;2022-11-15T00:38:06;99260.25;;;21.73;48.22
74466;BME280;62916;50.044;15.938;2022-11-15T00:40:36;99260.21;;;21.72;48.04
74466;BME280;62916;50.044;15.938;2022-11-15T00:43:07;99255.38;;;21.69;48.09
74466;BME280;62916;50.044;15.938;2022-11-15T00:45:38;99257.24;;;21.69;48.04
74466;BME280;62916;50.044;15.938;2022-11-15T00:48:08;99255.24;;;21.68;48.05
74466;BME280;62916;50.044;15.938;2022-11-15T00:50:40;99253.52;;;21.65;48.11
74466;BME280;62916;50.044;15.938;2022-11-15T00:53:11;99253.65;;;21.66;48.28
74466;BME280;62916;50.044;15.938;2022-11-15T00:55:42;99246.59;;;21.67;48.06
74466;BME280;62916;50.044;15.938;2022-11-15T00:58:13;99245.27;;;21.66;48.23
74466;BME280;62916;50.044;15.938;2022-11-15T01:00:44;99238.95;;;21.65;48.14
74466;BME280;62916;50.044;15.938;2022-11-15T01:03:15;99238.11;;;21.67;48.03
74466;BME280;62916;50.044;15.938;2022-11-15T01:05:45;99235.16;;;21.66;48.19
74466;BME280;62916;50.044;15.938;2022-11-15T01:08:17;99241.75;;;21.64;48.12
74466;BME280;62916;50.044;15.938;2022-11-15T01:10:47;99243.30;;;21.63;48.10
74466;BME280;62916;50.044;15.938;2022-11-15T01:13:18;99243.52;;;21.61;48.30
74466;BME280;62916;50.044;15.938;2022-11-15T01:15:49;99240.50;;;21.60;48.33
74466;BME280;62916;50.044;15.938;2022-11-15T01:18:20;99239.25;;;21.62;48.12
74466;BME280;62916;50.044;15.938;2022-11-15T01:20:51;99234.42;;;21.61;48.20
74466;BME280;62916;50.044;15.938;2022-11-15T01:23:22;99236.02;;;21.57;48.29
74466;BME280;62916;50.044;15.938;2022-11-15T01:25:53;99230.71;;;21.53;48.41
74466;BME280;62916;50.044;15.938;2022-11-15T01:28:31;99226.60;;;21.51;48.42
74466;BME280;62916;50.044;15.938;2022-11-15T01:31:03;99225.70;;;21.50;48.56
74466;BME280;62916;50.044;15.938;2022-11-15T01:33:35;99223.11;;;21.50;48.43
74466;BME280;62916;50.044;15.938;2022-11-15T01:36:08;99227.95;;;21.48;48.49
74466;BME280;62916;50.044;15.938;2022-11-15T01:38:40;99230.91;;;21.48;48.60
74466;BME280;62916;50.044;15.938;2022-11-15T01:41:17;99217.14;;;21.50;48.41
74466;BME280;62916;50.044;15.938;2022-11-15T01:43:51;99218.91;;;21.47;48.09
74466;BME280;62916;50.044;15.938;2022-11-15T01:46:27;99213.84;;;21.48;48.32
74466;BME280;62916;50.044;15.938;2022-11-15T01:49:03;99219.09;;;21.50;48.30
74466;BME280;62916;50.044;15.938;2022-11-15T01:51:34;99220.00;;;21.50;48.48
74466;BME280;62916;50.044;15.938;2022-11-15T01:54:08;99215.98;;;21.51;48.29
74466;BME280;62916;50.044;15.938;2022-11-15T01:56:44;99215.52;;;21.51;48.35
74466;BME280;62916;50.044;15.938;2022-11-15T01:59:16;99210.70;;;21.50;48.26
74466;BME280;62916;50.044;15.938;2022-11-15T02:01:48;99210.79;;;21.47;48.29
74466;BME280;62916;50.044;15.938;2022-11-15T02:04:23;99203.19;;;21.45;48.39
74466;BME280;62916;50.044;15.938;2022-11-15T02:06:55;99196.35;;;21.42;48.16
74466;BME280;62916;50.044;15.938;2022-11-15T02:09:26;99194.26;;;21.41;48.04
74466;BME280;62916;50.044;15.938;2022-11-15T02:11:57;99179.35;;;21.41;48.40
74466;BME280;62916;50.044;15.938;2022-11-15T02:14:31;99178.41;;;21.40;48.24
74466;BME280;62916;50.044;15.938;2022-11-15T02:17:14;99180.66;;;21.38;48.29
74466;BME280;62916;50.044;15.938;2022-11-15T02:20:25;99180.17;;;21.38;48.28
74466;BME280;62916;50.044;15.938;2022-11-15T02:23:13;99178.08;;;21.38;48.42
74466;BME280;62916;50.044;15.938;2022-11-15T02:26:01;99174.17;;;21.41;48.43
74466;BME280;62916;50.044;15.938;2022-11-15T02:28:46;99176.52;;;21.44;48.35
74466;BME280;62916;50.044;15.938;2022-11-15T02:31:25;99179.70;;;21.43;48.35
74466;BME280;62916;50.044;15.938;2022-11-15T02:34:02;99171.59;;;21.46;48.30
74466;BME280;62916;50.044;15.938;2022-11-15T02:36:41;99167.80;;;21.47;48.33
74466;BME280;62916;50.044;15.938;2022-11-15T02:39:20;99165.80;;;21.45;48.22
74466;BME280;62916;50.044;15.938;2022-11-15T02:41:57;99165.18;;;21.43;48.15
74466;BME280;62916;50.044;15.938;2022-11-15T02:44:34;99157.40;;;21.41;48.19
74466;BME280;62916;50.044;15.938;2022-11-15T02:47:09;99162.44;;;21.45;47.91
74466;BME280;62916;50.044;15.938;2022-11-15T02:49:47;99157.13;;;21.45;48.31
74466;BME280;62916;50.044;15.938;2022-11-15T02:52:17;99153.52;;;21.45;48.23
74466;BME280;62916;50.044;15.938;2022-11-15T02:54:55;99146.03;;;21.42;48.30
74466;BME280;62916;50.044;15.938;2022-11-15T02:57:38;99142.46;;;21.38;48.15
74466;BME280;62916;50.044;15.938;2022-11-15T03:00:14;99138.55;;;21.36;48.33
74466;BME280;62916;50.044;15.938;2022-11-15T03:03:01;99133.02;;;21.35;48.35
74466;BME280;62916;50.044;15.938;2022-11-15T03:05:43;99133.93;;;21.36;48.29
74466;BME280;62916;50.044;15.938;2022-11-15T03:08:20;99132.49;;;21.34;48.22
74466;BME280;62916;50.044;15.938;2022-11-15T03:11:00;99128.91;;;21.35;48.24
74466;BME280;62916;50.044;15.938;2022-11-15T03:13:37;99127.14;;;21.34;48.39
74466;BME280;62916;50.044;15.938;2022-11-15T03:16:14;99121.48;;;21.36;48.17
74466;BME280;62916;50.044;15.938;2022-11-15T03:18:49;99112.13;;;21.30;48.31
74466;BME280;62916;50.044;15.938;2022-11-15T03:21:23;99118.48;;;21.28;48.28
74466;BME280;62916;50.044;15.938;2022-11-15T03:23:56;99117.55;;;21.29;48.23
74466;BME280;62916;50.044;15.938;2022-11-15T03:26:27;99121.05;;;21.27;48.42
74466;BME280;62916;50.044;15.938;2022-11-15T03:29:03;99116.14;;;21.22;48.28
74466;BME280;62916;50.044;15.938;2022-11-15T03:31:38;99113.64;;;21.22;48.24
74466;BME280;62916;50.044;15.938;2022-11-15T03:34:26;99113.22;;;21.26;48.26
74466;BME280;62916;50.044;15.938;2022-11-15T03:36:58;99109.01;;;21.27;48.14
74466;BME280;62916;50.044;15.938;2022-11-15T03:39:29;99111.36;;;21.27;48.24
74466;BME280;62916;50.044;15.938;2022-11-15T03:42:07;99106.94;;;21.26;48.32
74466;BME280;62916;50.044;15.938;2022-11-15T03:44:47;99104.41;;;21.25;48.31
74466;BME280;62916;50.044;15.938;2022-11-15T03:47:25;99105.21;;;21.29;48.46
74466;BME280;62916;50.044;15.938;2022-11-15T03:49:59;99103.02;;;21.30;48.33
74466;BME280;62916;50.044;15.938;2022-11-15T03:52:34;99102.23;;;21.27;48.48
74466;BME280;62916;50.044;15.938;2022-11-15T03:55:09;99100.41;;;21.21;48.77
74466;BME280;62916;50.044;15.938;2022-11-15T03:57:41;99096.87;;;21.23;48.46
74466;BME280;62916;50.044;15.938;2022-11-15T04:00:13;99097.17;;;21.32;48.44
74466;BME280;62916;50.044;15.938;2022-11-15T04:02:44;99099.08;;;21.35;48.29
74466;BME280;62916;50.044;15.938;2022-11-15T04:05:15;99100.38;;;21.30;48.40
74466;BME280;62916;50.044;15.938;2022-11-15T04:07:45;99099.60;;;21.26;48.59
74466;BME280;62916;50.044;15.938;2022-11-15T04:10:17;99106.38;;;21.21;48.58
74466;BME280;62916;50.044;15.938;2022-11-15T04:12:48;99108.74;;;21.17;48.48
74466;BME280;62916;50.044;15.938;2022-11-15T04:15:22;99107.67;;;21.13;48.60
74466;BME280;62916;50.044;15.938;2022-11-15T04:17:54;99102.85;;;21.11;48.55
74466;BME280;62916;50.044;15.938;2022-11-15T04:20:26;99104.40;;;21.10;48.58
74466;BME280;62916;50.044;15.938;2022-11-15T04:23:16;99096.74;;;21.10;48.63
74466;BME280;62916;50.044;15.938;2022-11-15T04:26:07;99093.30;;;21.12;48.67
74466;BME280;62916;50.044;15.938;2022-11-15T04:28:40;99092.12;;;21.19;48.64
74466;BME280;62916;50.044;15.938;2022-11-15T04:31:24;99095.27;;;21.23;48.18
74466;BME280;62916;50.044;15.938;2022-11-15T04:33:57;99094.52;;;21.20;48.43
74466;BME280;62916;50.044;15.938;2022-11-15T04:36:28;99091.88;;;21.22;48.47
74466;BME280;62916;50.044;15.938;2022-11-15T04:39:15;99093.05;;;21.24;48.51
74466;BME280;62916;50.044;15.938;2022-11-15T04:41:46;99090.70;;;21.25;48.47
74466;BME280;62916;50.044;15.938;2022-11-15T04:44:17;99093.59;;;21.23;48.52
74466;BME280;62916;50.044;15.938;2022-11-15T04:46:47;99092.95;;;21.23;48.53
74466;BME280;62916;50.044;15.938;2022-11-15T04:49:18;99090.06;;;21.18;48.12
74466;BME280;62916;50.044;15.938;2022-11-15T04:51:49;99091.80;;;21.11;48.31
74466;BME280;62916;50.044;15.938;2022-11-15T04:54:21;99093.90;;;21.05;48.04
74466;BME280;62916;50.044;15.938;2022-11-15T04:56:52;99097.52;;;21.01;47.97
74466;BME280;62916;50.044;15.938;2022-11-15T04:59:23;99099.40;;;20.96;47.78
74466;BME280;62916;50.044;15.938;2022-11-15T05:01:53;99096.89;;;20.92;47.63
74466;BME280;62916;50.044;15.938;2022-11-15T05:04:24;99096.08;;;20.89;47.46
74466;BME280;62916;50.044;15.938;2022-11-15T05:06:55;99092.73;;;20.86;47.34
74466;BME280;62916;50.044;15.938;2022-11-15T05:09:26;99093.58;;;20.86;47.59
74466;BME280;62916;50.044;15.938;2022-11-15T05:11:57;99100.30;;;20.87;47.43
74466;BME280;62916;50.044;15.938;2022-11-15T05:14:28;99072.80;;;20.74;47.26
74466;BME280;62916;50.044;15.938;2022-11-15T05:16:59;99089.55;;;20.91;47.26
74466;BME280;62916;50.044;15.938;2022-11-15T05:19:29;99092.88;;;20.93;47.15
74466;BME280;62916;50.044;15.938;2022-11-15T05:22:00;99092.05;;;20.92;47.27
74466;BME280;62916;50.044;15.938;2022-11-15T05:27:02;99088.58;;;20.94;47.27
74466;BME280;62916;50.044;15.938;2022-11-15T05:29:33;99087.42;;;20.95;47.23
74466;BME280;62916;50.044;15.938;2022-11-15T05:32:05;99083.91;;;20.96;47.10
74466;BME280;62916;50.044;15.938;2022-11-15T05:34:36;99089.45;;;20.95;47.19
74466;BME280;62916;50.044;15.938;2022-11-15T05:37:07;99093.15;;;20.93;47.24
74466;BME280;62916;50.044;15.938;2022-11-15T05:39:37;99089.50;;;20.93;47.15
74466;BME280;62916;50.044;15.938;2022-11-15T05:42:11;99084.33;;;20.92;47.12
74466;BME280;62916;50.044;15.938;2022-11-15T05:44:42;99083.01;;;20.91;47.18
74466;BME280;62916;50.044;15.938;2022-11-15T05:47:18;99082.76;;;20.87;47.23
74466;BME280;62916;50.044;15.938;2022-11-15T05:49:52;99079.98;;;20.88;47.22
74466;BME280;62916;50.044;15.938;2022-11-15T05:52:25;99080.77;;;20.86;47.17
74466;BME280;62916;50.044;15.938;2022-11-15T05:54:59;99083.74;;;20.83;47.36
74466;BME280;62916;50.044;15.938;2022-11-15T05:57:30;99088.26;;;20.83;47.33
74466;BME280;62916;50.044;15.938;2022-11-15T06:00:02;99087.59;;;20.82;47.38
74466;BME280;62916;50.044;15.938;2022-11-15T06:02:33;99086.98;;;20.83;47.29
74466;BME280;62916;50.044;15.938;2022-11-15T06:05:05;99091.14;;;20.84;47.14
74466;BME280;62916;50.044;15.938;2022-11-15T06:07:36;99094.48;;;20.86;47.02
74466;BME280;62916;50.044;15.938;2022-11-15T06:10:08;99101.60;;;20.87;47.06
74466;BME280;62916;50.044;15.938;2022-11-15T06:12:39;99101.48;;;20.86;47.17
74466;BME280;62916;50.044;15.938;2022-11-15T06:15:11;99107.59;;;20.85;47.11
74466;BME280;62916;50.044;15.938;2022-11-15T06:17:41;99104.05;;;20.85;47.18
74466;BME280;62916;50.044;15.938;2022-11-15T06:20:13;99108.05;;;20.84;47.12
74466;BME280;62916;50.044;15.938;2022-11-15T06:22:43;99108.18;;;20.84;47.11
74466;BME280;62916;50.044;15.938;2022-11-15T06:25:14;99111.48;;;20.85;47.17
74466;BME280;62916;50.044;15.938;2022-11-15T06:27:45;99106.90;;;20.85;46.98
74466;BME280;62916;50.044;15.938;2022-11-15T06:30:21;99103.36;;;20.85;46.97
74466;BME280;62916;50.044;15.938;2022-11-15T06:32:52;99102.67;;;20.83;46.92
74466;BME280;62916;50.044;15.938;2022-11-15T06:35:29;99100.62;;;20.79;47.09
74466;BME280;62916;50.044;15.938;2022-11-15T06:38:05;99099.19;;;20.77;47.08
74466;BME280;62916;50.044;15.938;2022-11-15T06:40:37;99100.20;;;20.74;47.12
74466;BME280;62916;50.044;15.938;2022-11-15T06:43:08;99093.77;;;20.75;47.10
74466;BME280;62916;50.044;15.938;2022-11-15T06:45:39;99098.09;;;20.74;47.07
74466;BME280;62916;50.044;15.938;2022-11-15T06:48:10;99103.77;;;20.72;47.10
74466;BME280;62916;50.044;15.938;2022-11-15T06:50:41;99108.71;;;20.72;47.01
74466;BME280;62916;50.044;15.938;2022-11-15T06:53:12;99111.16;;;20.72;47.19
74466;BME280;62916;50.044;15.938;2022-11-15T06:55:42;99113.15;;;20.71;47.04
74466;BME280;62916;50.044;15.938;2022-11-15T06:58:13;99115.55;;;20.69;47.06
74466;BME280;62916;50.044;15.938;2022-11-15T07:00:44;99117.41;;;20.67;47.14
74466;BME280;62916;50.044;15.938;2022-11-15T07:03:15;99115.53;;;20.68;47.10
74466;BME280;62916;50.044;15.938;2022-11-15T07:05:53;99118.19;;;20.67;47.02
74466;BME280;62916;50.044;15.938;2022-11-15T07:08:27;99115.70;;;20.68;46.96
74466;BME280;62916;50.044;15.938;2022-11-15T07:10:58;99110.86;;;20.66;47.06
74466;BME280;62916;50.044;15.938;2022-11-15T07:13:31;99112.67;;;20.64;47.02
74466;BME280;62916;50.044;15.938;2022-11-15T07:16:05;99112.10;;;20.65;47.09
74466;BME280;62916;50.044;15.938;2022-11-15T07:18:37;99114.13;;;20.66;46.99
74466;BME280;62916;50.044;15.938;2022-11-15T07:21:09;99119.95;;;20.66;47.15
74466;BME280;62916;50.044;15.938;2022-11-15T07:23:41;99119.23;;;20.66;46.88
74466;BME280;62916;50.044;15.938;2022-11-15T07:26:11;99127.14;;;20.66;47.07
74466;BME280;62916;50.044;15.938;2022-11-15T07:28:42;99129.89;;;20.67;47.02
74466;BME280;62916;50.044;15.938;2022-11-15T07:31:13;99128.95;;;20.64;47.02
74466;BME280;62916;50.044;15.938;2022-11-15T07:33:44;99133.92;;;20.61;46.96
74466;BME280;62916;50.044;15.938;2022-11-15T07:36:15;99133.39;;;20.62;47.01
74466;BME280;62916;50.044;15.938;2022-11-15T07:38:45;99130.95;;;20.65;47.01
74466;BME280;62916;50.044;15.938;2022-11-15T07:41:16;99128.51;;;20.69;46.97
74466;BME280;62916;50.044;15.938;2022-11-15T07:43:47;99127.48;;;20.75;46.84
74466;BME280;62916;50.044;15.938;2022-11-15T07:46:21;99115.98;;;20.80;46.84
74466;BME280;62916;50.044;15.938;2022-11-15T07:48:51;99117.63;;;20.85;46.68
74466;BME280;62916;50.044;15.938;2022-11-15T07:51:22;99116.52;;;20.90;46.83
74466;BME280;62916;50.044;15.938;2022-11-15T07:53:53;99115.02;;;20.96;46.79
74466;BME280;62916;50.044;15.938;2022-11-15T07:56:24;99112.81;;;21.00;46.60
74466;BME280;62916;50.044;15.938;2022-11-15T07:58:55;99111.33;;;21.05;46.73
74466;BME280;62916;50.044;15.938;2022-11-15T08:01:27;99108.51;;;21.09;46.60
74466;BME280;62916;50.044;15.938;2022-11-15T08:03:57;99109.60;;;21.12;46.70
74466;BME280;62916;50.044;15.938;2022-11-15T08:06:29;99106.91;;;21.16;46.48
74466;BME280;62916;50.044;15.938;2022-11-15T08:09:00;99103.69;;;21.21;46.70
74466;BME280;62916;50.044;15.938;2022-11-15T08:11:30;99101.42;;;21.23;46.64
74466;BME280;62916;50.044;15.938;2022-11-15T08:14:01;99100.23;;;21.29;46.65
74466;BME280;62916;50.044;15.938;2022-11-15T08:16:32;99099.38;;;21.32;46.57
74466;BME280;62916;50.044;15.938;2022-11-15T08:19:03;99103.48;;;21.34;46.58
74466;BME280;62916;50.044;15.938;2022-11-15T08:21:33;99103.92;;;21.37;46.58
74466;BME280;62916;50.044;15.938;2022-11-15T08:24:05;99099.07;;;21.38;46.63
74466;BME280;62916;50.044;15.938;2022-11-15T08:26:36;99091.61;;;21.40;46.47
74466;BME280;62916;50.044;15.938;2022-11-15T08:29:07;99092.39;;;21.43;46.56
74466;BME280;62916;50.044;15.938;2022-11-15T08:31:38;99088.59;;;21.44;46.51
74466;BME280;62916;50.044;15.938;2022-11-15T08:34:09;99088.30;;;21.46;46.45
74466;BME280;62916;50.044;15.938;2022-11-15T08:36:39;99082.48;;;21.48;46.38
74466;BME280;62916;50.044;15.938;2022-11-15T08:39:14;99077.84;;;21.50;46.53
74466;BME280;62916;50.044;15.938;2022-11-15T08:41:45;99077.23;;;21.51;46.32
74466;BME280;62916;50.044;15.938;2022-11-15T08:44:16;99075.33;;;21.53;46.38
74466;BME280;62916;50.044;15.938;2022-11-15T08:46:48;99081.52;;;21.56;46.51
74466;BME280;62916;50.044;15.938;2022-11-15T08:49:18;99080.03;;;21.57;46.44
74466;BME280;62916;50.044;15.938;2022-11-15T08:51:49;99081.52;;;21.58;46.31
74466;BME280;62916;50.044;15.938;2022-11-15T08:54:20;99079.48;;;21.59;46.49
74466;BME280;62916;50.044;15.938;2022-11-15T08:56:50;99075.57;;;21.60;46.24
74466;BME280;62916;50.044;15.938;2022-11-15T08:59:21;99073.71;;;21.60;46.33
74466;BME280;62916;50.044;15.938;2022-11-15T09:01:52;99076.43;;;21.61;46.26
74466;BME280;62916;50.044;15.938;2022-11-15T09:04:23;99081.71;;;21.62;46.27
74466;BME280;62916;50.044;15.938;2022-11-15T09:06:54;99082.89;;;21.62;46.26
74466;BME280;62916;50.044;15.938;2022-11-15T09:09:25;99080.30;;;21.64;46.29
74466;BME280;62916;50.044;15.938;2022-11-15T09:11:55;99076.79;;;21.65;46.12
74466;BME280;62916;50.044;15.938;2022-11-15T09:14:31;99076.46;;;21.66;46.39
74466;BME280;62916;50.044;15.938;2022-11-15T09:17:02;99079.23;;;21.69;46.06
74466;BME280;62916;50.044;15.938;2022-11-15T09:19:32;99079.54;;;21.70;45.91
74466;BME280;62916;50.044;15.938;2022-11-15T09:22:07;99068.83;;;21.72;46.05
74466;BME280;62916;50.044;15.938;2022-11-15T09:24:38;99072.31;;;21.73;45.92
74466;BME280;62916;50.044;15.938;2022-11-15T09:27:08;99069.98;;;21.75;45.94
74466;BME280;62916;50.044;15.938;2022-11-15T09:29:39;99067.45;;;21.77;45.94
74466;BME280;62916;50.044;15.938;2022-11-15T09:32:10;99070.37;;;21.77;45.86
74466;BME280;62916;50.044;15.938;2022-11-15T09:34:40;99067.83;;;21.78;45.70
74466;BME280;62916;50.044;15.938;2022-11-15T09:37:11;99064.80;;;21.79;45.82
74466;BME280;62916;50.044;15.938;2022-11-15T09:39:42;99065.84;;;21.79;45.90
74466;BME280;62916;50.044;15.938;2022-11-15T09:42:25;99059.23;;;21.79;45.72
74466;BME280;62916;50.044;15.938;2022-11-15T09:45:10;99058.30;;;21.78;45.86
74466;BME280;62916;50.044;15.938;2022-11-15T09:47:55;99051.96;;;21.79;45.84
74466;BME280;62916;50.044;15.938;2022-11-15T09:50:34;99045.54;;;21.79;45.75
74466;BME280;62916;50.044;15.938;2022-11-15T09:55:49;99038.11;;;21.81;45.71
74466;BME280;62916;50.044;15.938;2022-11-15T09:58:26;99034.75;;;21.80;45.42
74466;BME280;62916;50.044;15.938;2022-11-15T10:01:04;99030.89;;;21.80;45.61
74466;BME280;62916;50.044;15.938;2022-11-15T10:03:39;99028.96;;;21.79;45.76
74466;BME280;62916;50.044;15.938;2022-11-15T10:06:25;99025.33;;;21.78;45.59
74466;BME280;62916;50.044;15.938;2022-11-15T10:09:01;99029.28;;;21.76;45.69
74466;BME280;62916;50.044;15.938;2022-11-15T10:11:35;99018.55;;;21.71;45.69
74466;BME280;62916;50.044;15.938;2022-11-15T10:14:13;99020.64;;;21.75;45.63
74466;BME280;62916;50.044;15.938;2022-11-15T10:17:10;99017.54;;;21.77;45.62
74466;BME280;62916;50.044;15.938;2022-11-15T10:19:52;99009.01;;;21.76;45.52
74466;BME280;62916;50.044;15.938;2022-11-15T10:22:35;99011.80;;;21.82;45.49
74466;BME280;62916;50.044;15.938;2022-11-15T10:25:23;99004.58;;;21.84;45.58
74466;BME280;62916;50.044;15.938;2022-11-15T10:27:59;98998.57;;;21.87;45.31
74466;BME280;62916;50.044;15.938;2022-11-15T10:30:36;98993.06;;;21.89;45.19
74466;BME280;62916;50.044;15.938;2022-11-15T10:33:23;98993.00;;;21.89;45.27
74466;BME280;62916;50.044;15.938;2022-11-15T10:36:20;98992.11;;;21.91;45.32
74466;BME280;62916;50.044;15.938;2022-11-15T10:38:58;98986.60;;;21.93;45.20
74466;BME280;62916;50.044;15.938;2022-11-15T10:41:36;98984.31;;;21.96;45.37
74466;BME280;62916;50.044;15.938;2022-11-15T10:44:19;98986.12;;;22.01;45.21
74466;BME280;62916;50.044;15.938;2022-11-15T10:47:06;98985.66;;;22.04;45.06
74466;BME280;62916;50.044;15.938;2022-11-15T10:49:37;98981.30;;;22.06;44.86
74466;BME280;62916;50.044;15.938;2022-11-15T10:52:23;98974.88;;;22.08;45.00
74466;BME280;62916;50.044;15.938;2022-11-15T10:54:56;98964.68;;;22.09;44.85
74466;BME280;62916;50.044;15.938;2022-11-15T10:57:31;98963.98;;;22.10;44.95
74466;BME280;62916;50.044;15.938;2022-11-15T11:00:06;98958.46;;;22.09;44.82
74466;BME280;62916;50.044;15.938;2022-11-15T11:02:38;98962.10;;;22.09;44.94
74466;BME280;62916;50.044;15.938;2022-11-15T11:05:31;98959.59;;;22.09;44.80
74466;BME280;62916;50.044;15.938;2022-11-15T11:08:23;98952.38;;;22.11;44.82
74466;BME280;62916;50.044;15.938;2022-11-15T11:10:56;98946.96;;;22.10;44.86
74466;BME280;62916;50.044;15.938;2022-11-15T11:13:33;98949.45;;;22.12;44.84
74466;BME280;62916;50.044;15.938;2022-11-15T11:16:30;98948.19;;;22.13;44.89
74466;BME280;62916;50.044;15.938;2022-11-15T11:19:18;98943.11;;;22.13;44.79
74466;BME280;62916;50.044;15.938;2022-11-15T11:22:01;98945.23;;;22.13;44.84
74466;BME280;62916;50.044;15.938;2022-11-15T11:24:38;98944.08;;;22.14;44.89
74466;BME280;62916;50.044;15.938;2022-11-15T11:27:21;98941.02;;;22.14;44.79
74466;BME280;62916;50.044;15.938;2022-11-15T11:30:06;98934.80;;;22.14;44.80
74466;BME280;62916;50.044;15.938;2022-11-15T11:32:55;98929.82;;;22.15;44.83
74466;BME280;62916;50.044;15.938;2022-11-15T11:35:32;98922.87;;;22.15;44.78
74466;BME280;62916;50.044;15.938;2022-11-15T11:38:29;98918.69;;;22.15;44.71
74466;BME280;62916;50.044;15.938;2022-11-15T11:41:08;98911.48;;;22.12;44.82
74466;BME280;62916;50.044;15.938;2022-11-15T11:43:49;98905.03;;;22.11;44.70
74466;BME280;62916;50.044;15.938;2022-11-15T11:46:40;98899.44;;;22.11;44.82
74466;BME280;62916;50.044;15.938;2022-11-15T11:49:18;98891.40;;;22.11;44.84
74466;BME280;62916;50.044;15.938;2022-11-15T11:51:54;98889.77;;;22.13;44.90
74466;BME280;62916;50.044;15.938;2022-11-15T11:54:33;98884.99;;;22.14;44.82
74466;BME280;62916;50.044;15.938;2022-11-15T11:57:13;98879.64;;;22.15;44.85
74466;BME280;62916;50.044;15.938;2022-11-15T11:59:50;98876.23;;;22.16;44.75
74466;BME280;62916;50.044;15.938;2022-11-15T12:02:31;98875.89;;;22.16;44.67
74466;BME280;62916;50.044;15.938;2022-11-15T12:05:12;98871.03;;;22.16;44.75
74466;BME280;62916;50.044;15.938;2022-11-15T12:07:44;98865.88;;;22.16;44.99
74466;BME280;62916;50.044;15.938;2022-11-15T12:10:23;98857.25;;;22.16;44.91
74466;BME280;62916;50.044;15.938;2022-11-15T12:13:02;98856.45;;;22.16;44.84
74466;BME280;62916;50.044;15.938;2022-11-15T12:15:39;98848.94;;;22.16;44.79
74466;BME280;62916;50.044;15.938;2022-11-15T12:18:13;98847.23;;;22.16;44.82
74466;BME280;62916;50.044;15.938;2022-11-15T12:20:58;98844.81;;;22.14;44.77
74466;BME280;62916;50.044;15.938;2022-11-15T12:23:36;98846.27;;;22.14;44.77
74466;BME280;62916;50.044;15.938;2022-11-15T12:26:11;98841.23;;;22.12;44.61
74466;BME280;62916;50.044;15.938;2022-11-15T12:28:47;98841.02;;;22.11;44.56
74466;BME280;62916;50.044;15.938;2022-11-15T12:31:40;98837.58;;;22.09;44.65
74466;BME280;62916;50.044;15.938;2022-11-15T12:34:35;98828.06;;;22.07;44.60
74466;BME280;62916;50.044;15.938;2022-11-15T12:37:47;98825.09;;;22.07;44.74
74466;BME280;62916;50.044;15.938;2022-11-15T12:40:32;98812.92;;;22.04;44.65
74466;BME280;62916;50.044;15.938;2022-11-15T12:46:10;98805.25;;;22.04;44.71
74466;BME280;62916;50.044;15.938;2022-11-15T12:48:58;98802.42;;;22.06;44.69
74466;BME280;62916;50.044;15.938;2022-11-15T12:54:55;98793.05;;;21.95;44.74
74466;BME280;62916;50.044;15.938;2022-11-15T12:57:41;98787.38;;;21.94;44.91
74466;BME280;62916;50.044;15.938;2022-11-15T13:00:44;98781.73;;;21.96;44.62
74466;BME280;62916;50.044;15.938;2022-11-15T13:03:26;98778.23;;;21.99;44.69
74466;BME280;62916;50.044;15.938;2022-11-15T13:06:09;98774.34;;;22.00;44.70
74466;BME280;62916;50.044;15.938;2022-11-15T13:09:00;98772.09;;;22.00;44.61
74466;BME280;62916;50.044;15.938;2022-11-15T13:11:49;98768.30;;;22.00;44.54
74466;BME280;62916;50.044;15.938;2022-11-15T13:14:46;98770.53;;;22.02;44.61
74466;BME280;62916;50.044;15.938;2022-11-15T13:17:31;98765.61;;;22.00;44.33
74466;BME280;62916;50.044;15.938;2022-11-15T13:20:25;98760.27;;;21.98;44.68
74466;BME280;62916;50.044;15.938;2022-11-15T13:23:07;98758.31;;;21.96;44.77
74466;BME280;62916;50.044;15.938;2022-11-15T13:28:41;98743.58;;;21.87;44.78
74466;BME280;62916;50.044;15.938;2022-11-15T13:31:26;98745.58;;;21.89;44.80
74466;BME280;62916;50.044;15.938;2022-11-15T13:34:00;98740.98;;;21.86;44.88
74466;BME280;62916;50.044;15.938;2022-11-15T13:36:32;98741.51;;;21.86;44.94
74466;BME280;62916;50.044;15.938;2022-11-15T13:39:06;98736.92;;;21.86;45.13
74466;BME280;62916;50.044;15.938;2022-11-15T13:41:49;98740.48;;;21.86;44.98
74466;BME280;62916;50.044;15.938;2022-11-15T13:44:22;98742.84;;;21.87;45.13
74466;BME280;62916;50.044;15.938;2022-11-15T13:47:04;98737.69;;;21.87;45.04
74466;BME280;62916;50.044;15.938;2022-11-15T13:49:35;98733.70;;;21.89;45.11